createdAt,value
2017-07-29T00:00:26.037Z,0
2017-07-29T00:01:35.185Z,0
2017-07-29T00:02:44.145Z,0
2017-07-29T00:03:53.355Z,0
2017-07-29T00:05:02.649Z,0
2017-07-29T00:06:11.984Z,0
2017-07-29T00:07:20.946Z,0
2017-07-29T00:08:29.939Z,0
2017-07-29T00:09:39.283Z,0
2017-07-29T00:10:48.434Z,0
2017-07-29T00:11:57.587Z,0
2017-07-29T00:13:07.168Z,0
2017-07-29T00:14:16.778Z,0
2017-07-29T00:15:26.862Z,0
2017-07-29T00:16:37.132Z,0
2017-07-29T00:17:46.697Z,0
2017-07-29T00:18:55.651Z,0
2017-07-29T00:20:04.603Z,0
2017-07-29T00:21:13.576Z,0
2017-07-29T00:22:22.540Z,0
2017-07-29T00:23:31.500Z,0
2017-07-29T00:24:40.832Z,0
2017-07-29T00:25:50.108Z,0
2017-07-29T00:26:59.581Z,0
2017-07-29T00:28:08.535Z,0
2017-07-29T00:29:17.493Z,0
2017-07-29T00:30:26.771Z,0
2017-07-29T00:31:36.102Z,0
2017-07-29T00:32:45.180Z,0
2017-07-29T00:33:54.420Z,0
2017-07-29T00:35:03.938Z,0
2017-07-29T00:36:12.895Z,0
2017-07-29T00:37:21.847Z,0
2017-07-29T00:38:31.446Z,0
2017-07-29T00:39:40.992Z,0
2017-07-29T00:40:50.558Z,0
2017-07-29T00:41:59.524Z,0
2017-07-29T00:43:08.470Z,0
2017-07-29T00:44:17.422Z,0
2017-07-29T00:45:26.381Z,0
2017-07-29T00:46:35.811Z,0
2017-07-29T00:47:44.771Z,0
2017-07-29T00:48:53.727Z,0
2017-07-29T00:50:02.682Z,0
2017-07-29T00:51:11.640Z,0
2017-07-29T00:52:20.600Z,0
2017-07-29T00:53:29.558Z,0
2017-07-29T00:54:38.532Z,0
2017-07-29T00:55:48.160Z,0
2017-07-29T00:56:57.112Z,0
2017-07-29T00:58:06.084Z,0
2017-07-29T00:59:15.041Z,0
2017-07-29T01:00:24.010Z,0
2017-07-29T01:01:33.214Z,0
2017-07-29T01:02:42.176Z,0
2017-07-29T01:03:51.625Z,0
2017-07-29T01:05:00.908Z,0
2017-07-29T01:06:10.067Z,0
2017-07-29T01:07:19.017Z,0
2017-07-29T01:08:28.359Z,0
2017-07-29T01:09:37.327Z,0
2017-07-29T01:10:46.289Z,0
2017-07-29T01:11:55.246Z,0
2017-07-29T01:13:04.533Z,0
2017-07-29T01:14:13.501Z,0
2017-07-29T01:15:23.192Z,0
2017-07-29T01:16:32.249Z,0
2017-07-29T01:17:41.682Z,0
2017-07-29T01:18:50.643Z,0
2017-07-29T01:19:59.595Z,0
2017-07-29T01:21:09.117Z,0
2017-07-29T01:22:18.123Z,0
2017-07-29T01:23:27.096Z,0
2017-07-29T01:24:36.306Z,0
2017-07-29T01:25:45.729Z,0
2017-07-29T01:26:55.023Z,0
2017-07-29T01:28:04.110Z,0
2017-07-29T01:29:13.073Z,0
2017-07-29T01:30:22.347Z,0
2017-07-29T01:31:31.315Z,0
2017-07-29T01:32:40.278Z,0
2017-07-29T01:33:49.228Z,0
2017-07-29T01:34:58.185Z,0
2017-07-29T01:36:07.146Z,0
2017-07-29T01:37:16.316Z,0
2017-07-29T01:38:25.614Z,0
2017-07-29T01:39:34.768Z,0
2017-07-29T01:40:44.113Z,0
2017-07-29T01:41:53.789Z,0
2017-07-29T01:43:03.501Z,0
2017-07-29T01:44:12.458Z,0
2017-07-29T01:45:21.409Z,0
2017-07-29T01:46:30.373Z,0
2017-07-29T01:47:39.702Z,0
2017-07-29T01:48:48.659Z,0
2017-07-29T01:49:57.629Z,0
2017-07-29T01:51:06.908Z,0
2017-07-29T01:52:15.860Z,0
2017-07-29T01:53:24.817Z,0
2017-07-29T01:54:33.772Z,0
2017-07-29T01:55:42.732Z,0
2017-07-29T01:56:51.693Z,0
2017-07-29T01:58:00.657Z,0
2017-07-29T01:59:09.759Z,0
2017-07-29T02:00:19.359Z,0
2017-07-29T02:01:28.315Z,0
2017-07-29T02:02:37.371Z,0
2017-07-29T02:03:47.152Z,0
2017-07-29T02:04:57.048Z,0
2017-07-29T02:06:06.011Z,0
2017-07-29T02:07:15.456Z,0
2017-07-29T02:08:24.415Z,0
2017-07-29T02:09:33.372Z,0
2017-07-29T02:10:42.354Z,0
2017-07-29T02:11:51.308Z,0
2017-07-29T02:13:00.323Z,0
2017-07-29T02:14:09.281Z,0
2017-07-29T02:15:18.256Z,0
2017-07-29T02:16:27.217Z,0
2017-07-29T02:17:36.495Z,0
2017-07-29T02:18:45.457Z,0
2017-07-29T02:19:54.411Z,0
2017-07-29T02:21:03.377Z,0
2017-07-29T02:22:12.336Z,0
2017-07-29T02:23:21.301Z,0
2017-07-29T02:24:30.259Z,0
2017-07-29T02:25:39.535Z,0
2017-07-29T02:26:48.505Z,0
2017-07-29T02:27:57.457Z,0
2017-07-29T02:29:06.424Z,0
2017-07-29T02:30:15.378Z,0
2017-07-29T02:31:24.345Z,0
2017-07-29T02:32:33.311Z,0
2017-07-29T02:33:42.264Z,0
2017-07-29T02:34:51.220Z,0
2017-07-29T02:36:00.175Z,0
2017-07-29T02:37:09.125Z,0
2017-07-29T02:38:18.078Z,0
2017-07-29T02:39:27.033Z,0
2017-07-29T02:40:36.321Z,0
2017-07-29T02:41:45.273Z,0
2017-07-29T02:42:54.243Z,0
2017-07-29T02:44:03.519Z,0
2017-07-29T02:45:12.479Z,0
2017-07-29T02:46:21.432Z,0
2017-07-29T02:47:30.410Z,0
2017-07-29T02:48:39.373Z,0
2017-07-29T02:49:48.340Z,0
2017-07-29T02:50:57.298Z,0
2017-07-29T02:52:06.251Z,0
2017-07-29T02:53:15.208Z,0
2017-07-29T02:54:24.167Z,0
2017-07-29T02:55:33.120Z,0
2017-07-29T02:56:42.073Z,0
2017-07-29T02:57:51.359Z,0
2017-07-29T02:59:00.320Z,0
2017-07-29T03:00:09.276Z,0
2017-07-29T03:01:18.242Z,0
2017-07-29T03:02:27.202Z,0
2017-07-29T03:03:36.164Z,0
2017-07-29T03:04:45.137Z,0
2017-07-29T03:05:54.119Z,0
2017-07-29T03:07:03.081Z,0
2017-07-29T03:08:12.041Z,0
2017-07-29T03:09:20.992Z,0
2017-07-29T03:10:29.960Z,0
2017-07-29T03:11:38.917Z,0
2017-07-29T03:12:47.875Z,0
2017-07-29T03:13:56.827Z,0
2017-07-29T03:15:05.787Z,0
2017-07-29T03:16:14.769Z,0
2017-07-29T03:17:23.729Z,0
2017-07-29T03:18:32.683Z,0
2017-07-29T03:19:41.637Z,0
2017-07-29T03:20:50.597Z,0
2017-07-29T03:21:59.562Z,0
2017-07-29T03:23:08.518Z,0
2017-07-29T03:24:17.476Z,0
2017-07-29T03:25:26.424Z,0
2017-07-29T03:26:35.378Z,0
2017-07-29T03:27:44.329Z,0
2017-07-29T03:28:53.898Z,0
2017-07-29T03:30:02.858Z,0
2017-07-29T03:31:11.826Z,0
2017-07-29T03:32:20.785Z,0
2017-07-29T03:33:29.749Z,0
2017-07-29T03:34:38.712Z,0
2017-07-29T03:35:47.678Z,0
2017-07-29T03:36:56.622Z,0
2017-07-29T03:38:05.583Z,0
2017-07-29T03:39:14.549Z,0
2017-07-29T03:40:23.508Z,0
2017-07-29T03:41:32.463Z,0
2017-07-29T03:42:41.745Z,0
2017-07-29T03:43:50.703Z,0
2017-07-29T03:44:59.661Z,0
2017-07-29T03:46:08.622Z,0
2017-07-29T03:47:17.584Z,0
2017-07-29T03:48:26.536Z,0
2017-07-29T03:49:35.497Z,0
2017-07-29T03:50:44.457Z,0
2017-07-29T03:51:53.428Z,0
2017-07-29T03:53:02.399Z,0
2017-07-29T03:54:11.359Z,0
2017-07-29T03:55:20.317Z,5
2017-07-29T03:56:29.594Z,5
2017-07-29T03:57:38.545Z,5
2017-07-29T03:58:47.500Z,5
2017-07-29T03:59:56.470Z,5
2017-07-29T04:01:05.422Z,5
2017-07-29T04:02:14.383Z,5
2017-07-29T04:03:23.338Z,5
2017-07-29T04:04:32.293Z,5
2017-07-29T04:05:41.271Z,5
2017-07-29T04:06:50.228Z,5
2017-07-29T04:07:59.184Z,5
2017-07-29T04:09:08.138Z,5
2017-07-29T04:10:17.412Z,5
2017-07-29T04:11:26.368Z,5
2017-07-29T04:12:35.321Z,5
2017-07-29T04:13:44.275Z,5
2017-07-29T04:14:53.227Z,5
2017-07-29T04:16:02.182Z,5
2017-07-29T04:17:11.151Z,5
2017-07-29T04:18:20.156Z,5
2017-07-29T04:19:29.114Z,5
2017-07-29T04:20:38.070Z,5
2017-07-29T04:21:47.045Z,5
2017-07-29T04:22:56.004Z,5
2017-07-29T04:24:04.958Z,5
2017-07-29T04:25:13.912Z,5
2017-07-29T04:26:22.865Z,5
2017-07-29T04:27:31.822Z,5
2017-07-29T04:28:40.773Z,5
2017-07-29T04:29:49.726Z,5
2017-07-29T04:30:58.676Z,10
2017-07-29T04:32:07.628Z,10
2017-07-29T04:33:16.581Z,10
2017-07-29T04:34:25.532Z,10
2017-07-29T04:35:34.491Z,10
2017-07-29T04:36:43.456Z,10
2017-07-29T04:37:52.411Z,15
2017-07-29T04:39:01.372Z,10
2017-07-29T04:40:10.647Z,10
2017-07-29T04:41:19.607Z,10
2017-07-29T04:42:28.562Z,10
2017-07-29T04:43:37.512Z,10
2017-07-29T04:44:46.474Z,10
2017-07-29T04:45:55.454Z,10
2017-07-29T04:47:04.416Z,10
2017-07-29T04:48:13.367Z,5
2017-07-29T04:49:22.327Z,5
2017-07-29T04:50:31.282Z,5
2017-07-29T04:51:40.244Z,5
2017-07-29T04:52:49.205Z,5
2017-07-29T04:53:58.160Z,10
2017-07-29T04:55:07.123Z,10
2017-07-29T04:56:16.087Z,10
2017-07-29T04:57:25.033Z,10
2017-07-29T04:58:33.991Z,5
2017-07-29T04:59:43.273Z,5
2017-07-29T05:00:52.228Z,5
2017-07-29T05:02:01.515Z,5
2017-07-29T05:03:10.471Z,5
2017-07-29T05:04:19.424Z,5
2017-07-29T05:05:28.380Z,5
2017-07-29T05:06:37.663Z,5
2017-07-29T05:07:46.634Z,5
2017-07-29T05:08:55.583Z,5
2017-07-29T05:10:04.536Z,5
2017-07-29T05:11:13.504Z,5
2017-07-29T05:12:22.455Z,5
2017-07-29T05:13:31.408Z,10
2017-07-29T05:14:40.681Z,10
2017-07-29T05:15:49.642Z,10
2017-07-29T05:16:58.929Z,15
2017-07-29T05:18:07.883Z,15
2017-07-29T05:19:16.837Z,15
2017-07-29T05:20:25.801Z,15
2017-07-29T05:21:34.770Z,10
2017-07-29T05:22:43.726Z,10
2017-07-29T05:23:53.018Z,10
2017-07-29T05:25:01.982Z,10
2017-07-29T05:26:10.943Z,10
2017-07-29T05:27:19.902Z,10
2017-07-29T05:28:29.180Z,10
2017-07-29T05:29:38.467Z,10
2017-07-29T05:30:47.742Z,10
2017-07-29T05:31:57.343Z,10
2017-07-29T05:33:06.301Z,15
2017-07-29T05:34:15.253Z,15
2017-07-29T05:35:24.206Z,15
2017-07-29T05:36:33.488Z,20
2017-07-29T05:37:42.456Z,25
2017-07-29T05:38:51.411Z,30
2017-07-29T05:40:00.693Z,30
2017-07-29T05:41:09.639Z,20
2017-07-29T05:42:18.923Z,15
2017-07-29T05:43:27.879Z,15
2017-07-29T05:44:36.830Z,15
2017-07-29T05:45:45.788Z,15
2017-07-29T05:46:54.765Z,15
2017-07-29T05:48:03.723Z,15
2017-07-29T05:49:12.672Z,10
2017-07-29T05:50:21.631Z,10
2017-07-29T05:51:30.583Z,10
2017-07-29T05:52:39.545Z,10
2017-07-29T05:53:48.503Z,10
2017-07-29T05:54:57.772Z,10
2017-07-29T05:56:06.731Z,20
2017-07-29T05:57:15.690Z,20
2017-07-29T05:58:24.650Z,20
2017-07-29T05:59:33.930Z,30
2017-07-29T06:00:42.894Z,30
2017-07-29T06:01:51.859Z,25
2017-07-29T06:03:00.816Z,20
2017-07-29T06:04:10.098Z,20
2017-07-29T06:05:19.057Z,25
2017-07-29T06:06:28.021Z,25
2017-07-29T06:07:36.979Z,30
2017-07-29T06:08:45.936Z,30
2017-07-29T06:09:54.891Z,30
2017-07-29T06:11:03.857Z,35
2017-07-29T06:12:12.826Z,35
2017-07-29T06:13:21.782Z,35
2017-07-29T06:14:30.737Z,30
2017-07-29T06:15:40.337Z,25
2017-07-29T06:16:49.304Z,25
2017-07-29T06:17:58.261Z,20
2017-07-29T06:19:07.221Z,20
2017-07-29T06:20:16.214Z,15
2017-07-29T06:21:25.169Z,20
2017-07-29T06:22:34.122Z,20
2017-07-29T06:23:43.087Z,20
2017-07-29T06:24:52.060Z,15
2017-07-29T06:26:01.028Z,15
2017-07-29T06:27:09.993Z,15
2017-07-29T06:28:18.946Z,15
2017-07-29T06:29:27.898Z,15
2017-07-29T06:30:36.849Z,20
2017-07-29T06:31:46.135Z,25
2017-07-29T06:32:55.085Z,30
2017-07-29T06:34:04.039Z,40
2017-07-29T06:35:13.001Z,40
2017-07-29T06:36:22.611Z,30
2017-07-29T06:37:31.579Z,25
2017-07-29T06:38:40.540Z,20
2017-07-29T06:39:49.487Z,20
2017-07-29T06:40:58.444Z,15
2017-07-29T06:42:07.400Z,20
2017-07-29T06:43:16.363Z,25
2017-07-29T06:44:25.325Z,30
2017-07-29T06:45:34.281Z,25
2017-07-29T06:46:43.238Z,20
2017-07-29T06:47:52.189Z,15
2017-07-29T06:49:01.143Z,20
2017-07-29T06:50:10.102Z,30
2017-07-29T06:51:19.060Z,35
2017-07-29T06:52:28.019Z,35
2017-07-29T06:53:36.975Z,35
2017-07-29T06:54:45.928Z,40
2017-07-29T06:55:55.216Z,40
2017-07-29T06:57:04.169Z,40
2017-07-29T06:58:13.118Z,40
2017-07-29T06:59:22.078Z,45
2017-07-29T07:00:31.027Z,35
2017-07-29T07:01:40.126Z,25
2017-07-29T07:02:49.192Z,20
2017-07-29T07:03:58.221Z,20
2017-07-29T07:05:07.187Z,20
2017-07-29T07:06:16.143Z,20
2017-07-29T07:07:25.093Z,20
2017-07-29T07:08:34.048Z,20
2017-07-29T07:09:43.005Z,20
2017-07-29T07:10:51.976Z,20
2017-07-29T07:12:00.944Z,20
2017-07-29T07:13:09.902Z,25
2017-07-29T07:14:18.854Z,40
2017-07-29T07:15:27.818Z,40
2017-07-29T07:16:36.768Z,30
2017-07-29T07:17:45.728Z,30
2017-07-29T07:18:54.684Z,35
2017-07-29T07:20:03.638Z,40
2017-07-29T07:21:12.994Z,35
2017-07-29T07:22:21.952Z,30
2017-07-29T07:23:30.909Z,30
2017-07-29T07:24:40.176Z,25
2017-07-29T07:25:49.136Z,25
2017-07-29T07:26:58.115Z,20
2017-07-29T07:28:07.072Z,20
2017-07-29T07:29:16.032Z,20
2017-07-29T07:30:24.995Z,20
2017-07-29T07:31:34.695Z,20
2017-07-29T07:32:43.772Z,25
2017-07-29T07:33:52.717Z,25
2017-07-29T07:35:02.007Z,25
2017-07-29T07:36:10.965Z,25
2017-07-29T07:37:19.925Z,25
2017-07-29T07:38:29.069Z,30
2017-07-29T07:39:38.139Z,25
2017-07-29T07:40:47.811Z,25
2017-07-29T07:41:57.753Z,20
2017-07-29T07:43:06.711Z,25
2017-07-29T07:44:15.900Z,35
2017-07-29T07:45:25.867Z,55
2017-07-29T07:46:35.444Z,45
2017-07-29T07:47:44.605Z,35
2017-07-29T07:48:54.436Z,30
2017-07-29T07:50:03.876Z,35
2017-07-29T07:51:13.331Z,40
2017-07-29T07:52:22.426Z,40
2017-07-29T07:53:31.567Z,40
2017-07-29T07:54:40.569Z,40
2017-07-29T07:55:50.099Z,40
2017-07-29T07:56:59.760Z,50
2017-07-29T07:58:08.718Z,60
2017-07-29T07:59:18.064Z,65
2017-07-29T08:00:27.023Z,75
2017-07-29T08:01:36.254Z,70
2017-07-29T08:02:45.507Z,80
2017-07-29T08:03:55.443Z,95
2017-07-29T08:05:05.414Z,100
2017-07-29T08:06:15.110Z,105
2017-07-29T08:07:24.751Z,90
2017-07-29T08:08:34.063Z,105
2017-07-29T08:09:43.016Z,90
2017-07-29T08:10:52.706Z,90
2017-07-29T08:12:02.413Z,105
2017-07-29T08:13:11.371Z,110
2017-07-29T08:14:20.699Z,85
2017-07-29T08:15:30.441Z,75
2017-07-29T08:16:40.097Z,65
2017-07-29T08:17:49.066Z,70
2017-07-29T08:18:58.511Z,75
2017-07-29T08:20:08.175Z,110
2017-07-29T08:21:17.871Z,125
2017-07-29T08:22:26.824Z,110
2017-07-29T08:23:36.166Z,105
2017-07-29T08:24:45.163Z,95
2017-07-29T08:25:54.874Z,115
2017-07-29T08:27:04.597Z,115
2017-07-29T08:28:14.286Z,110
2017-07-29T08:29:23.250Z,105
2017-07-29T08:30:32.521Z,100
2017-07-29T08:31:42.531Z,100
2017-07-29T08:32:52.183Z,90
2017-07-29T08:34:01.136Z,85
2017-07-29T08:35:10.490Z,90
2017-07-29T08:36:20.174Z,90
2017-07-29T08:37:29.127Z,80
2017-07-29T08:38:38.425Z,95
2017-07-29T08:39:47.414Z,100
2017-07-29T08:40:56.391Z,85
2017-07-29T08:42:05.394Z,70
2017-07-29T08:43:14.384Z,65
2017-07-29T08:44:23.377Z,70
2017-07-29T08:45:32.357Z,65
2017-07-29T08:46:41.341Z,75
2017-07-29T08:47:50.334Z,85
2017-07-29T08:48:59.313Z,95
2017-07-29T08:50:08.301Z,105
2017-07-29T08:51:17.282Z,115
2017-07-29T08:52:26.276Z,135
2017-07-29T08:53:35.268Z,145
2017-07-29T08:54:44.248Z,130
2017-07-29T08:55:53.232Z,110
2017-07-29T08:57:02.550Z,95
2017-07-29T08:58:11.520Z,100
2017-07-29T08:59:20.506Z,105
2017-07-29T09:00:29.489Z,110
2017-07-29T09:01:38.479Z,115
2017-07-29T09:02:47.469Z,125
2017-07-29T09:03:56.465Z,130
2017-07-29T09:05:05.458Z,130
2017-07-29T09:06:14.450Z,125
2017-07-29T09:07:23.429Z,105
2017-07-29T09:08:32.431Z,85
2017-07-29T09:09:41.419Z,80
2017-07-29T09:10:50.405Z,80
2017-07-29T09:11:59.718Z,90
2017-07-29T09:13:08.701Z,120
2017-07-29T09:14:17.689Z,125
2017-07-29T09:15:26.669Z,125
2017-07-29T09:16:35.659Z,100
2017-07-29T09:17:44.645Z,65
2017-07-29T09:18:53.629Z,50
2017-07-29T09:20:02.629Z,50
2017-07-29T09:21:11.628Z,60
2017-07-29T09:22:20.615Z,65
2017-07-29T09:23:29.610Z,70
2017-07-29T09:24:38.594Z,75
2017-07-29T09:25:47.609Z,95
2017-07-29T09:26:56.585Z,95
2017-07-29T09:28:05.577Z,105
2017-07-29T09:29:14.566Z,120
2017-07-29T09:30:23.552Z,130
2017-07-29T09:31:32.535Z,145
2017-07-29T09:32:41.521Z,135
2017-07-29T09:33:50.504Z,140
2017-07-29T09:34:59.494Z,130
2017-07-29T09:36:08.488Z,105
2017-07-29T09:37:17.480Z,100
2017-07-29T09:38:26.456Z,95
2017-07-29T09:39:35.444Z,95
2017-07-29T09:40:44.434Z,90
2017-07-29T09:41:53.417Z,90
2017-07-29T09:43:02.409Z,95
2017-07-29T09:44:11.396Z,95
2017-07-29T09:45:20.378Z,110
2017-07-29T09:46:29.376Z,135
2017-07-29T09:47:38.355Z,120
2017-07-29T09:48:47.340Z,115
2017-07-29T09:49:56.321Z,115
2017-07-29T09:51:05.650Z,110
2017-07-29T09:52:14.635Z,105
2017-07-29T09:53:23.618Z,105
2017-07-29T09:54:32.603Z,115
2017-07-29T09:55:41.602Z,95
2017-07-29T09:56:50.582Z,110
2017-07-29T09:57:59.567Z,110
2017-07-29T09:59:08.552Z,115
2017-07-29T10:00:17.540Z,115
2017-07-29T10:01:26.525Z,130
2017-07-29T10:02:35.503Z,110
2017-07-29T10:03:44.820Z,85
2017-07-29T10:04:53.808Z,65
2017-07-29T10:06:02.795Z,70
2017-07-29T10:07:11.783Z,100
2017-07-29T10:08:21.091Z,85
2017-07-29T10:09:30.071Z,80
2017-07-29T10:10:39.386Z,75
2017-07-29T10:11:48.370Z,115
2017-07-29T10:12:57.370Z,110
2017-07-29T10:14:06.337Z,115
2017-07-29T10:15:15.308Z,80
2017-07-29T10:16:24.272Z,105
2017-07-29T10:17:33.232Z,85
2017-07-29T10:18:42.196Z,110
2017-07-29T10:19:51.161Z,125
2017-07-29T10:21:00.116Z,115
2017-07-29T10:22:09.077Z,90
2017-07-29T10:23:18.373Z,95
2017-07-29T10:24:27.331Z,75
2017-07-29T10:25:36.292Z,90
2017-07-29T10:26:45.256Z,115
2017-07-29T10:27:54.224Z,100
2017-07-29T10:29:03.182Z,70
2017-07-29T10:30:12.146Z,65
2017-07-29T10:31:21.433Z,55
2017-07-29T10:32:30.398Z,65
2017-07-29T10:33:39.355Z,75
2017-07-29T10:34:48.327Z,90
2017-07-29T10:35:57.287Z,90
2017-07-29T10:37:06.255Z,100
2017-07-29T10:38:15.547Z,95
2017-07-29T10:39:24.512Z,65
2017-07-29T10:40:33.491Z,75
2017-07-29T10:41:42.488Z,60
2017-07-29T10:42:51.448Z,60
2017-07-29T10:44:00.418Z,75
2017-07-29T10:45:09.380Z,70
2017-07-29T10:46:18.354Z,65
2017-07-29T10:47:27.310Z,70
2017-07-29T10:48:36.276Z,85
2017-07-29T10:49:45.304Z,110
2017-07-29T10:50:54.264Z,70
2017-07-29T10:52:03.542Z,90
2017-07-29T10:53:12.505Z,110
2017-07-29T10:54:21.462Z,105
2017-07-29T10:55:30.442Z,100
2017-07-29T10:56:39.389Z,85
2017-07-29T10:57:48.348Z,70
2017-07-29T10:58:57.315Z,55
2017-07-29T11:00:06.663Z,55
2017-07-29T11:01:15.623Z,55
2017-07-29T11:02:24.591Z,50
2017-07-29T11:03:33.548Z,50
2017-07-29T11:04:42.505Z,45
2017-07-29T11:05:51.461Z,50
2017-07-29T11:07:00.427Z,75
2017-07-29T11:08:09.711Z,65
2017-07-29T11:09:18.669Z,65
2017-07-29T11:10:27.638Z,55
2017-07-29T11:11:36.608Z,50
2017-07-29T11:12:45.567Z,50
2017-07-29T11:13:54.519Z,45
2017-07-29T11:15:04.047Z,45
2017-07-29T11:16:13.357Z,45
2017-07-29T11:17:22.622Z,45
2017-07-29T11:18:32.169Z,45
2017-07-29T11:19:41.669Z,45
2017-07-29T11:20:51.648Z,40
2017-07-29T11:22:02.035Z,35
2017-07-29T11:23:11.671Z,40
2017-07-29T11:24:22.120Z,35
2017-07-29T11:25:31.471Z,30
2017-07-29T11:26:40.523Z,25
2017-07-29T11:27:49.478Z,35
2017-07-29T11:28:58.455Z,35
2017-07-29T11:30:07.421Z,40
2017-07-29T11:31:16.706Z,45
2017-07-29T11:32:25.668Z,50
2017-07-29T11:33:34.646Z,50
2017-07-29T11:34:43.934Z,55
2017-07-29T11:35:52.895Z,50
2017-07-29T11:37:01.884Z,55
2017-07-29T11:38:10.839Z,60
2017-07-29T11:39:19.802Z,65
2017-07-29T11:40:28.761Z,75
2017-07-29T11:41:37.756Z,85
2017-07-29T11:42:46.863Z,95
2017-07-29T11:43:56.395Z,90
2017-07-29T11:45:05.381Z,80
2017-07-29T11:46:14.987Z,85
2017-07-29T11:47:24.602Z,90
2017-07-29T11:48:34.262Z,95
2017-07-29T11:49:43.225Z,90
2017-07-29T11:50:52.680Z,90
2017-07-29T11:52:02.666Z,85
2017-07-29T11:53:12.390Z,75
2017-07-29T11:54:21.829Z,65
2017-07-29T11:55:30.815Z,60
2017-07-29T11:56:40.089Z,60
2017-07-29T11:57:49.683Z,80
2017-07-29T11:58:59.513Z,105
2017-07-29T12:00:09.115Z,100
2017-07-29T12:01:19.267Z,75
2017-07-29T12:02:28.994Z,75
2017-07-29T12:03:38.330Z,60
2017-07-29T12:04:47.306Z,60
2017-07-29T12:05:56.941Z,50
2017-07-29T12:07:06.504Z,60
2017-07-29T12:08:15.506Z,45
2017-07-29T12:09:24.956Z,70
2017-07-29T12:10:34.545Z,60
2017-07-29T12:11:44.009Z,60
2017-07-29T12:12:52.964Z,50
2017-07-29T12:14:02.541Z,60
2017-07-29T12:15:11.499Z,60
2017-07-29T12:16:20.596Z,65
2017-07-29T12:17:29.616Z,70
2017-07-29T12:18:38.717Z,65
2017-07-29T12:19:47.772Z,60
2017-07-29T12:20:56.735Z,75
2017-07-29T12:22:06.183Z,75
2017-07-29T12:23:15.312Z,105
2017-07-29T12:24:24.630Z,90
2017-07-29T12:25:33.614Z,65
2017-07-29T12:26:42.765Z,65
2017-07-29T12:27:51.892Z,60
2017-07-29T12:29:00.948Z,60
2017-07-29T12:30:10.230Z,60
2017-07-29T12:31:19.286Z,60
2017-07-29T12:32:28.356Z,60
2017-07-29T12:33:37.310Z,60
2017-07-29T12:34:46.263Z,60
2017-07-29T12:35:55.233Z,45
2017-07-29T12:37:04.327Z,45
2017-07-29T12:38:13.431Z,55
2017-07-29T12:39:22.396Z,70
2017-07-29T12:40:31.382Z,65
2017-07-29T12:41:40.413Z,65
2017-07-29T12:42:49.384Z,70
2017-07-29T12:43:58.339Z,70
2017-07-29T12:45:07.608Z,50
2017-07-29T12:46:16.611Z,70
2017-07-29T12:47:25.609Z,80
2017-07-29T12:48:34.602Z,85
2017-07-29T12:49:43.659Z,65
2017-07-29T12:50:52.800Z,70
2017-07-29T12:52:01.758Z,50
2017-07-29T12:53:10.717Z,50
2017-07-29T12:54:19.675Z,50
2017-07-29T12:55:28.868Z,55
2017-07-29T12:56:44.129Z,60
2017-07-29T12:57:58.841Z,75
2017-07-29T12:59:08.134Z,65
2017-07-29T13:00:17.151Z,70
2017-07-29T13:01:26.109Z,75
2017-07-29T13:02:35.098Z,80
2017-07-29T13:03:44.058Z,95
2017-07-29T13:04:53.024Z,75
2017-07-29T13:06:01.981Z,70
2017-07-29T13:07:11.262Z,65
2017-07-29T13:08:20.228Z,70
2017-07-29T13:09:29.183Z,75
2017-07-29T13:10:38.140Z,70
2017-07-29T13:11:47.099Z,75
2017-07-29T13:12:56.056Z,90
2017-07-29T13:14:05.025Z,70
2017-07-29T13:15:13.987Z,105
2017-07-29T13:16:22.948Z,90
2017-07-29T13:17:31.906Z,80
2017-07-29T13:18:40.859Z,80
2017-07-29T13:19:49.819Z,115
2017-07-29T13:20:58.791Z,115
2017-07-29T13:22:07.758Z,110
2017-07-29T13:23:16.737Z,75
2017-07-29T13:24:25.702Z,60
2017-07-29T13:25:34.659Z,80
2017-07-29T13:26:43.618Z,95
2017-07-29T13:27:52.582Z,100
2017-07-29T13:29:01.538Z,100
2017-07-29T13:30:10.499Z,55
2017-07-29T13:31:19.449Z,90
2017-07-29T13:32:28.408Z,50
2017-07-29T13:33:37.718Z,65
2017-07-29T13:34:46.673Z,70
2017-07-29T13:35:55.635Z,55
2017-07-29T13:37:04.595Z,55
2017-07-29T13:38:13.580Z,50
2017-07-29T13:39:22.533Z,55
2017-07-29T13:40:31.504Z,80
2017-07-29T13:41:40.461Z,60
2017-07-29T13:42:49.421Z,120
2017-07-29T13:43:58.392Z,70
2017-07-29T13:45:07.685Z,65
2017-07-29T13:46:16.976Z,70
2017-07-29T13:47:25.934Z,45
2017-07-29T13:48:34.902Z,45
2017-07-29T13:49:43.867Z,45
2017-07-29T13:50:52.831Z,85
2017-07-29T13:52:01.995Z,50
2017-07-29T13:53:11.120Z,80
2017-07-29T13:54:20.405Z,75
2017-07-29T13:55:29.524Z,75
2017-07-29T13:56:38.598Z,75
2017-07-29T13:57:47.562Z,30
2017-07-29T13:58:56.854Z,35
2017-07-29T14:00:05.816Z,30
2017-07-29T14:01:15.137Z,35
2017-07-29T14:02:24.093Z,35
2017-07-29T14:03:33.055Z,45
2017-07-29T14:04:42.365Z,50
2017-07-29T14:05:51.329Z,60
2017-07-29T14:07:00.296Z,55
2017-07-29T14:08:09.251Z,55
2017-07-29T14:09:18.205Z,55
2017-07-29T14:10:27.168Z,70
2017-07-29T14:11:36.132Z,75
2017-07-29T14:12:45.091Z,90
2017-07-29T14:13:54.384Z,90
2017-07-29T14:15:03.336Z,55
2017-07-29T14:16:12.300Z,50
2017-07-29T14:17:21.263Z,55
2017-07-29T14:18:30.219Z,50
2017-07-29T14:19:49.709Z,95
2017-07-29T14:21:07.629Z,95
2017-07-29T14:22:19.983Z,70
2017-07-29T14:23:28.957Z,90
2017-07-29T14:24:37.921Z,60
2017-07-29T14:25:46.878Z,70
2017-07-29T14:26:55.838Z,65
2017-07-29T14:28:05.230Z,70
2017-07-29T14:29:14.476Z,70
2017-07-29T14:30:23.693Z,75
2017-07-29T14:31:33.016Z,70
2017-07-29T14:32:42.233Z,70
2017-07-29T14:33:52.739Z,80
2017-07-29T14:35:12.697Z,70
2017-07-29T14:36:33.701Z,70
2017-07-29T14:37:44.188Z,50
2017-07-29T14:38:54.818Z,70
2017-07-29T14:40:04.194Z,35
2017-07-29T14:41:13.168Z,30
2017-07-29T14:42:22.126Z,35
2017-07-29T14:43:31.093Z,40
2017-07-29T14:44:40.137Z,45
2017-07-29T14:45:49.199Z,45
2017-07-29T14:46:58.343Z,50
2017-07-29T14:48:07.526Z,45
2017-07-29T14:49:16.482Z,45
2017-07-29T14:50:25.602Z,50
2017-07-29T14:51:34.576Z,45
2017-07-29T14:52:43.954Z,35
2017-07-29T14:53:52.920Z,40
2017-07-29T14:55:01.987Z,40
2017-07-29T14:56:11.033Z,35
2017-07-29T14:57:20.172Z,30
2017-07-29T14:58:29.132Z,35
2017-07-29T14:59:38.204Z,40
2017-07-29T15:00:47.294Z,40
2017-07-29T15:01:56.386Z,50
2017-07-29T15:03:05.542Z,60
2017-07-29T15:04:14.828Z,35
2017-07-29T15:05:23.784Z,30
2017-07-29T15:06:32.742Z,30
2017-07-29T15:07:41.709Z,30
2017-07-29T15:08:50.672Z,25
2017-07-29T15:09:59.639Z,30
2017-07-29T15:11:08.601Z,30
2017-07-29T15:12:17.880Z,30
2017-07-29T15:13:26.839Z,20
2017-07-29T15:14:36.128Z,20
2017-07-29T15:15:45.093Z,15
2017-07-29T15:16:54.054Z,15
2017-07-29T15:18:03.128Z,15
2017-07-29T15:19:12.242Z,10
2017-07-29T15:20:21.606Z,10
2017-07-29T15:21:30.685Z,10
2017-07-29T15:22:39.849Z,10
2017-07-29T15:23:49.341Z,10
2017-07-29T15:24:58.955Z,10
2017-07-29T15:26:08.118Z,10
2017-07-29T15:27:17.238Z,10
2017-07-29T15:28:26.438Z,15
2017-07-29T15:29:35.755Z,15
2017-07-29T15:30:44.914Z,15
2017-07-29T15:31:53.876Z,20
2017-07-29T15:33:03.434Z,25
2017-07-29T15:34:12.717Z,40
2017-07-29T15:35:21.796Z,45
2017-07-29T15:36:30.968Z,50
2017-07-29T15:37:40.087Z,50
2017-07-29T15:38:49.146Z,45
2017-07-29T15:39:58.252Z,45
2017-07-29T15:41:07.662Z,50
2017-07-29T15:42:16.822Z,45
2017-07-29T15:43:25.783Z,60
2017-07-29T15:44:34.762Z,60
2017-07-29T15:45:43.743Z,50
2017-07-29T15:46:52.726Z,45
2017-07-29T15:48:01.717Z,40
2017-07-29T15:49:10.726Z,40
2017-07-29T15:50:19.703Z,40
2017-07-29T15:51:29.006Z,35
2017-07-29T15:52:38.004Z,35
2017-07-29T15:53:47.318Z,35
2017-07-29T15:54:56.297Z,35
2017-07-29T15:56:05.285Z,25
2017-07-29T15:57:14.266Z,25
2017-07-29T15:58:23.246Z,25
2017-07-29T15:59:32.236Z,30
2017-07-29T16:00:41.233Z,30
2017-07-29T16:01:50.213Z,30
2017-07-29T16:02:59.196Z,35
2017-07-29T16:04:08.192Z,35
2017-07-29T16:05:17.181Z,20
2017-07-29T16:06:26.165Z,20
2017-07-29T16:07:35.166Z,20
2017-07-29T16:08:44.482Z,20
2017-07-29T16:09:53.464Z,20
2017-07-29T16:11:02.443Z,25
2017-07-29T16:12:11.433Z,25
2017-07-29T16:13:20.418Z,30
2017-07-29T16:14:29.453Z,35
2017-07-29T16:15:38.753Z,35
2017-07-29T16:16:47.736Z,40
2017-07-29T16:17:56.724Z,45
2017-07-29T16:19:05.715Z,45
2017-07-29T16:20:14.702Z,40
2017-07-29T16:21:23.680Z,40
2017-07-29T16:22:32.656Z,30
2017-07-29T16:23:41.643Z,20
2017-07-29T16:24:50.646Z,15
2017-07-29T16:25:59.631Z,20
2017-07-29T16:27:08.630Z,15
2017-07-29T16:28:17.606Z,15
2017-07-29T16:29:26.580Z,15
2017-07-29T16:30:35.574Z,20
2017-07-29T16:31:44.550Z,20
2017-07-29T16:32:53.543Z,25